sensor_id;sensor_type;location;lat;lon;timestamp;pressure;altitude;pressure_sealevel;temperature;humidity
40918;BME280;26644;50.248;19.032;2023-01-27T00:00:15;98228.72;;;0.69;72.58
40918;BME280;26644;50.248;19.032;2023-01-27T00:03:21;98234.47;;;0.80;72.63
40918;BME280;26644;50.248;19.032;2023-01-27T00:06:26;98221.25;;;0.71;72.32
40918;BME280;26644;50.248;19.032;2023-01-27T00:09:31;98236.72;;;0.83;72.43
40918;BME280;26644;50.248;19.032;2023-01-27T00:12:38;98240.28;;;0.83;72.34
40918;BME280;26644;50.248;19.032;2023-01-27T00:15:58;98218.13;;;0.68;72.50
40918;BME280;26644;50.248;19.032;2023-01-27T00:19:04;98241.09;;;0.84;72.75
40918;BME280;26644;50.248;19.032;2023-01-27T00:22:09;98238.16;;;0.85;72.81
40918;BME280;26644;50.248;19.032;2023-01-27T00:25:27;98242.97;;;0.83;72.92
40918;BME280;26644;50.248;19.032;2023-01-27T00:28:33;98242.19;;;0.76;73.11
40918;BME280;26644;50.248;19.032;2023-01-27T00:31:41;98237.22;;;0.73;73.49
40918;BME280;26644;50.248;19.032;2023-01-27T00:34:59;98244.53;;;0.72;73.51
40918;BME280;26644;50.248;19.032;2023-01-27T00:38:05;98248.91;;;0.67;73.78
40918;BME280;26644;50.248;19.032;2023-01-27T00:41:10;98245.56;;;0.71;73.82
40918;BME280;26644;50.248;19.032;2023-01-27T00:44:20;98250.56;;;0.68;73.92
40918;BME280;26644;50.248;19.032;2023-01-27T00:47:28;98247.88;;;0.68;74.16
40918;BME280;26644;50.248;19.032;2023-01-27T00:50:35;98248.53;;;0.63;74.16
40918;BME280;26644;50.248;19.032;2023-01-27T00:53:40;98233.84;;;0.52;74.51
40918;BME280;26644;50.248;19.032;2023-01-27T00:56:46;98235.50;;;0.53;74.62
40918;BME280;26644;50.248;19.032;2023-01-27T00:59:52;98228.50;;;0.46;74.76
40918;BME280;26644;50.248;19.032;2023-01-27T01:03:00;98227.84;;;0.50;74.93
40918;BME280;26644;50.248;19.032;2023-01-27T01:06:07;98236.94;;;0.56;75.00
40918;BME280;26644;50.248;19.032;2023-01-27T01:09:15;98247.97;;;0.54;74.73
40918;BME280;26644;50.248;19.032;2023-01-27T01:12:22;98241.13;;;0.52;74.73
40918;BME280;26644;50.248;19.032;2023-01-27T01:15:28;98238.66;;;0.50;74.54
40918;BME280;26644;50.248;19.032;2023-01-27T01:18:36;98244.91;;;0.44;74.46
40918;BME280;26644;50.248;19.032;2023-01-27T01:21:42;98238.13;;;0.35;74.65
40918;BME280;26644;50.248;19.032;2023-01-27T01:24:47;98242.25;;;0.37;74.65
40918;BME280;26644;50.248;19.032;2023-01-27T01:27:53;98242.25;;;0.37;74.64
40918;BME280;26644;50.248;19.032;2023-01-27T01:31:03;98235.41;;;0.35;74.68
40918;BME280;26644;50.248;19.032;2023-01-27T01:34:12;98213.31;;;0.19;74.56
40918;BME280;26644;50.248;19.032;2023-01-27T01:37:18;98242.25;;;0.37;74.72
40918;BME280;26644;50.248;19.032;2023-01-27T01:40:24;98239.50;;;0.44;74.53
40918;BME280;26644;50.248;19.032;2023-01-27T01:43:31;98238.47;;;0.45;74.19
40918;BME280;26644;50.248;19.032;2023-01-27T01:46:37;98232.69;;;0.41;74.53
40918;BME280;26644;50.248;19.032;2023-01-27T01:49:46;98224.97;;;0.45;74.03
40918;BME280;26644;50.248;19.032;2023-01-27T01:52:53;98244.81;;;0.57;74.13
40918;BME280;26644;50.248;19.032;2023-01-27T01:56:05;98240.84;;;0.60;74.07
40918;BME280;26644;50.248;19.032;2023-01-27T01:59:20;98239.22;;;0.59;73.75
40918;BME280;26644;50.248;19.032;2023-01-27T02:02:29;98243.84;;;0.52;74.00
40918;BME280;26644;50.248;19.032;2023-01-27T02:05:42;98239.47;;;0.51;74.17
40918;BME280;26644;50.248;19.032;2023-01-27T02:08:50;98227.91;;;0.43;74.34
40918;BME280;26644;50.248;19.032;2023-01-27T02:11:58;98228.03;;;0.55;74.29
40918;BME280;26644;50.248;19.032;2023-01-27T02:15:06;98226.94;;;0.63;74.04
40918;BME280;26644;50.248;19.032;2023-01-27T02:18:14;98224.81;;;0.65;73.91
40918;BME280;26644;50.248;19.032;2023-01-27T02:21:21;98217.59;;;0.59;73.99
40918;BME280;26644;50.248;19.032;2023-01-27T02:24:33;98228.13;;;0.67;73.57
40918;BME280;26644;50.248;19.032;2023-01-27T02:27:47;98214.94;;;0.52;73.92
40918;BME280;26644;50.248;19.032;2023-01-27T02:30:53;98215.81;;;0.46;74.03
40918;BME280;26644;50.248;19.032;2023-01-27T02:34:01;98224.47;;;0.55;74.35
40918;BME280;26644;50.248;19.032;2023-01-27T02:37:11;98226.34;;;0.54;73.93
40918;BME280;26644;50.248;19.032;2023-01-27T02:40:18;98229.50;;;0.51;74.20
40918;BME280;26644;50.248;19.032;2023-01-27T02:43:28;98221.88;;;0.41;74.36
40918;BME280;26644;50.248;19.032;2023-01-27T02:46:33;98231.03;;;0.40;74.13
40918;BME280;26644;50.248;19.032;2023-01-27T02:49:39;98228.16;;;0.35;74.41
40918;BME280;26644;50.248;19.032;2023-01-27T02:52:44;98228.34;;;0.34;74.45
40918;BME280;26644;50.248;19.032;2023-01-27T02:55:52;98212.06;;;0.22;74.22
40918;BME280;26644;50.248;19.032;2023-01-27T02:58:59;98227.41;;;0.21;73.86
40918;BME280;26644;50.248;19.032;2023-01-27T03:02:11;98233.50;;;0.10;74.13
40918;BME280;26644;50.248;19.032;2023-01-27T03:05:23;98221.72;;;-0.02;74.36
40918;BME280;26644;50.248;19.032;2023-01-27T03:08:29;98214.06;;;-0.05;74.48
40918;BME280;26644;50.248;19.032;2023-01-27T03:11:34;98226.69;;;0.07;74.38
40918;BME280;26644;50.248;19.032;2023-01-27T03:14:56;98228.72;;;0.12;74.02
40918;BME280;26644;50.248;19.032;2023-01-27T03:18:14;98214.66;;;0.03;73.57
40918;BME280;26644;50.248;19.032;2023-01-27T03:21:20;98238.25;;;0.15;73.46
40918;BME280;26644;50.248;19.032;2023-01-27T03:24:25;98234.34;;;0.10;72.88
40918;BME280;26644;50.248;19.032;2023-01-27T03:27:35;98243.25;;;0.11;72.88
40918;BME280;26644;50.248;19.032;2023-01-27T03:31:07;98186.78;;;-0.29;72.44
40918;BME280;26644;50.248;19.032;2023-01-27T03:34:25;98237.31;;;-0.04;72.62
40918;BME280;26644;50.248;19.032;2023-01-27T03:37:40;98248.53;;;-0.08;72.15
40918;BME280;26644;50.248;19.032;2023-01-27T03:40:59;98223.28;;;-0.20;72.39
40918;BME280;26644;50.248;19.032;2023-01-27T03:44:18;98209.63;;;-0.32;72.84
40918;BME280;26644;50.248;19.032;2023-01-27T03:47:38;98240.91;;;-0.17;72.80
40918;BME280;26644;50.248;19.032;2023-01-27T03:50:43;98223.94;;;-0.25;73.13
40918;BME280;26644;50.248;19.032;2023-01-27T03:53:54;98243.19;;;-0.21;73.09
40918;BME280;26644;50.248;19.032;2023-01-27T03:57:01;98229.09;;;-0.23;73.54
40918;BME280;26644;50.248;19.032;2023-01-27T04:00:09;98231.59;;;-0.21;73.36
40918;BME280;26644;50.248;19.032;2023-01-27T04:03:21;98241.56;;;-0.22;73.31
40918;BME280;26644;50.248;19.032;2023-01-27T04:06:41;98233.66;;;-0.24;73.18
40918;BME280;26644;50.248;19.032;2023-01-27T04:09:58;98222.91;;;-0.37;73.40
40918;BME280;26644;50.248;19.032;2023-01-27T04:13:04;98238.88;;;-0.22;73.38
40918;BME280;26644;50.248;19.032;2023-01-27T04:16:06;98216.47;;;-0.29;73.14
40918;BME280;26644;50.248;19.032;2023-01-27T04:19:15;98216.44;;;-0.23;73.42
40918;BME280;26644;50.248;19.032;2023-01-27T04:22:20;98222.59;;;-0.09;73.37
40918;BME280;26644;50.248;19.032;2023-01-27T04:25:26;98232.34;;;-0.08;73.17
40918;BME280;26644;50.248;19.032;2023-01-27T04:28:31;98231.78;;;-0.16;73.01
40918;BME280;26644;50.248;19.032;2023-01-27T04:31:37;98232.63;;;-0.23;73.31
40918;BME280;26644;50.248;19.032;2023-01-27T04:34:45;98209.69;;;-0.45;73.66
40918;BME280;26644;50.248;19.032;2023-01-27T04:37:51;98228.97;;;-0.42;73.49
40918;BME280;26644;50.248;19.032;2023-01-27T04:40:56;98231.03;;;-0.44;73.89
40918;BME280;26644;50.248;19.032;2023-01-27T04:44:02;98225.06;;;-0.52;73.77
40918;BME280;26644;50.248;19.032;2023-01-27T04:47:08;98218.84;;;-0.53;73.11
40918;BME280;26644;50.248;19.032;2023-01-27T04:50:17;98232.72;;;-0.43;73.33
40918;BME280;26644;50.248;19.032;2023-01-27T04:53:22;98217.38;;;-0.49;72.50
40918;BME280;26644;50.248;19.032;2023-01-27T04:56:29;98237.44;;;-0.38;71.98
40918;BME280;26644;50.248;19.032;2023-01-27T04:59:35;98233.50;;;-0.35;72.26
40918;BME280;26644;50.248;19.032;2023-01-27T05:02:41;98227.72;;;-0.39;72.14
40918;BME280;26644;50.248;19.032;2023-01-27T05:05:49;98237.22;;;-0.30;72.18
40918;BME280;26644;50.248;19.032;2023-01-27T05:08:55;98243.81;;;-0.19;71.92
40918;BME280;26644;50.248;19.032;2023-01-27T05:12:01;98221.47;;;-0.40;70.07
40918;BME280;26644;50.248;19.032;2023-01-27T05:15:08;98222.53;;;-0.41;69.47
40918;BME280;26644;50.248;19.032;2023-01-27T05:18:14;98249.28;;;-0.32;69.44
40918;BME280;26644;50.248;19.032;2023-01-27T05:21:24;98221.28;;;-0.45;69.25
40918;BME280;26644;50.248;19.032;2023-01-27T05:24:33;98240.75;;;-0.29;69.33
40918;BME280;26644;50.248;19.032;2023-01-27T05:27:39;98245.31;;;-0.30;69.55
40918;BME280;26644;50.248;19.032;2023-01-27T05:30:44;98251.53;;;-0.29;68.87
40918;BME280;26644;50.248;19.032;2023-01-27T05:33:51;98244.09;;;-0.34;68.05
40918;BME280;26644;50.248;19.032;2023-01-27T05:37:00;98241.59;;;-0.35;67.76
40918;BME280;26644;50.248;19.032;2023-01-27T05:40:07;98252.34;;;-0.29;67.41
40918;BME280;26644;50.248;19.032;2023-01-27T05:43:13;98262.75;;;-0.26;67.81
40918;BME280;26644;50.248;19.032;2023-01-27T05:46:21;98253.81;;;-0.26;67.93
40918;BME280;26644;50.248;19.032;2023-01-27T05:49:30;98252.34;;;-0.29;67.88
40918;BME280;26644;50.248;19.032;2023-01-27T05:52:39;98261.09;;;-0.33;67.65
40918;BME280;26644;50.248;19.032;2023-01-27T05:55:44;98261.72;;;-0.38;67.68
40918;BME280;26644;50.248;19.032;2023-01-27T05:58:50;98269.22;;;-0.40;67.81
40918;BME280;26644;50.248;19.032;2023-01-27T06:01:57;98255.78;;;-0.53;67.56
40918;BME280;26644;50.248;19.032;2023-01-27T06:05:03;98252.66;;;-0.57;67.58
40918;BME280;26644;50.248;19.032;2023-01-27T06:08:11;98275.22;;;-0.45;68.00
40918;BME280;26644;50.248;19.032;2023-01-27T06:11:19;98271.94;;;-0.47;67.50
40918;BME280;26644;50.248;19.032;2023-01-27T06:14:25;98271.94;;;-0.47;67.55
40918;BME280;26644;50.248;19.032;2023-01-27T06:17:30;98277.34;;;-0.47;67.82
40918;BME280;26644;50.248;19.032;2023-01-27T06:20:36;98286.25;;;-0.53;67.36
40918;BME280;26644;50.248;19.032;2023-01-27T06:23:45;98286.47;;;-0.54;67.56
40918;BME280;26644;50.248;19.032;2023-01-27T06:26:50;98261.44;;;-0.68;67.51
40918;BME280;26644;50.248;19.032;2023-01-27T06:29:56;98241.13;;;-0.91;67.46
40918;BME280;26644;50.248;19.032;2023-01-27T06:33:01;98276.97;;;-0.70;67.29
40918;BME280;26644;50.248;19.032;2023-01-27T06:36:10;98286.91;;;-0.64;67.16
40918;BME280;26644;50.248;19.032;2023-01-27T06:39:18;98281.72;;;-0.72;67.03
40918;BME280;26644;50.248;19.032;2023-01-27T06:42:24;98309.94;;;-0.55;66.77
40918;BME280;26644;50.248;19.032;2023-01-27T06:45:29;98275.09;;;-0.70;66.78
40918;BME280;26644;50.248;19.032;2023-01-27T06:48:35;98294.81;;;-0.69;66.73
40918;BME280;26644;50.248;19.032;2023-01-27T06:51:40;98303.09;;;-0.64;66.98
40918;BME280;26644;50.248;19.032;2023-01-27T06:54:49;98309.94;;;-0.62;66.92
40918;BME280;26644;50.248;19.032;2023-01-27T06:57:54;98305.59;;;-0.63;67.12
40918;BME280;26644;50.248;19.032;2023-01-27T07:01:00;98285.66;;;-0.75;67.30
40918;BME280;26644;50.248;19.032;2023-01-27T07:04:07;98288.78;;;-0.71;67.35
40918;BME280;26644;50.248;19.032;2023-01-27T07:07:12;98303.28;;;-0.66;67.73
40918;BME280;26644;50.248;19.032;2023-01-27T07:10:20;98301.63;;;-0.60;67.39
40918;BME280;26644;50.248;19.032;2023-01-27T07:13:26;98326.94;;;-0.54;67.41
40918;BME280;26644;50.248;19.032;2023-01-27T07:16:32;98323.63;;;-0.50;67.71
40918;BME280;26644;50.248;19.032;2023-01-27T07:19:37;98329.63;;;-0.48;67.35
40918;BME280;26644;50.248;19.032;2023-01-27T07:22:42;98316.13;;;-0.48;67.40
40918;BME280;26644;50.248;19.032;2023-01-27T07:25:50;98305.56;;;-0.56;67.32
40918;BME280;26644;50.248;19.032;2023-01-27T07:28:56;98325.66;;;-0.45;67.47
40918;BME280;26644;50.248;19.032;2023-01-27T07:32:01;98320.69;;;-0.42;67.44
40918;BME280;26644;50.248;19.032;2023-01-27T07:35:07;98321.50;;;-0.41;67.43
40918;BME280;26644;50.248;19.032;2023-01-27T07:38:12;98316.13;;;-0.48;67.61
40918;BME280;26644;50.248;19.032;2023-01-27T07:41:20;98318.81;;;-0.48;67.70
40918;BME280;26644;50.248;19.032;2023-01-27T07:44:27;98318.00;;;-0.48;67.70
40918;BME280;26644;50.248;19.032;2023-01-27T07:47:32;98319.47;;;-0.46;67.38
40918;BME280;26644;50.248;19.032;2023-01-27T07:50:39;98315.28;;;-0.42;67.68
40918;BME280;26644;50.248;19.032;2023-01-27T07:53:44;98297.25;;;-0.48;67.63
40918;BME280;26644;50.248;19.032;2023-01-27T07:56:53;98307.78;;;-0.33;67.16
40918;BME280;26644;50.248;19.032;2023-01-27T07:59:58;98313.16;;;-0.26;67.17
40918;BME280;26644;50.248;19.032;2023-01-27T08:03:03;98321.09;;;-0.31;67.33
40918;BME280;26644;50.248;19.032;2023-01-27T08:06:10;98323.59;;;-0.36;67.71
40918;BME280;26644;50.248;19.032;2023-01-27T08:09:17;98304.53;;;-0.48;68.00
40918;BME280;26644;50.248;19.032;2023-01-27T08:12:24;98321.91;;;-0.37;68.43
40918;BME280;26644;50.248;19.032;2023-01-27T08:15:31;98316.97;;;-0.41;68.64
40918;BME280;26644;50.248;19.032;2023-01-27T08:18:36;98316.53;;;-0.37;68.90
40918;BME280;26644;50.248;19.032;2023-01-27T08:21:41;98323.16;;;-0.33;69.20
40918;BME280;26644;50.248;19.032;2023-01-27T08:24:46;98308.66;;;-0.46;69.51
40918;BME280;26644;50.248;19.032;2023-01-27T08:27:55;98306.78;;;-0.45;70.09
40918;BME280;26644;50.248;19.032;2023-01-27T08:31:06;98328.53;;;-0.33;70.17
40918;BME280;26644;50.248;19.032;2023-01-27T08:34:12;98329.59;;;-0.34;70.54
40918;BME280;26644;50.248;19.032;2023-01-27T08:37:17;98311.56;;;-0.47;71.13
40918;BME280;26644;50.248;19.032;2023-01-27T08:40:23;98341.00;;;-0.26;70.84
40918;BME280;26644;50.248;19.032;2023-01-27T08:43:31;98324.22;;;-0.41;71.04
40918;BME280;26644;50.248;19.032;2023-01-27T08:46:38;98336.22;;;-0.37;71.51
40918;BME280;26644;50.248;19.032;2023-01-27T08:49:43;98344.31;;;-0.37;71.88
40918;BME280;26644;50.248;19.032;2023-01-27T08:52:49;98330.84;;;-0.37;72.18
40918;BME280;26644;50.248;19.032;2023-01-27T08:55:56;98339.13;;;-0.32;72.46
40918;BME280;26644;50.248;19.032;2023-01-27T08:59:08;98345.75;;;-0.28;72.38
40918;BME280;26644;50.248;19.032;2023-01-27T09:02:13;98310.75;;;-0.54;71.88
40918;BME280;26644;50.248;19.032;2023-01-27T09:05:19;98330.22;;;-0.39;72.17
40918;BME280;26644;50.248;19.032;2023-01-27T09:08:26;98339.56;;;-0.35;72.13
40918;BME280;26644;50.248;19.032;2023-01-27T09:11:32;98362.13;;;-0.16;72.42
40918;BME280;26644;50.248;19.032;2023-01-27T09:14:40;98359.66;;;-0.17;71.80
40918;BME280;26644;50.248;19.032;2023-01-27T09:17:46;98349.69;;;-0.24;71.61
40918;BME280;26644;50.248;19.032;2023-01-27T09:20:51;98366.94;;;-0.25;71.48
40918;BME280;26644;50.248;19.032;2023-01-27T09:23:57;98364.03;;;-0.23;71.37
40918;BME280;26644;50.248;19.032;2023-01-27T09:27:02;98372.50;;;-0.19;71.93
40918;BME280;26644;50.248;19.032;2023-01-27T09:30:13;98372.91;;;-0.09;71.56
40918;BME280;26644;50.248;19.032;2023-01-27T09:33:19;98372.28;;;-0.04;70.46
40918;BME280;26644;50.248;19.032;2023-01-27T09:36:26;98377.03;;;0.00;70.88
40918;BME280;26644;50.248;19.032;2023-01-27T09:39:37;98355.22;;;0.02;70.36
40918;BME280;26644;50.248;19.032;2023-01-27T09:46:57;98364.28;;;0.27;68.98
40918;BME280;26644;50.248;19.032;2023-01-27T09:50:42;98366.28;;;0.39;68.81
40918;BME280;26644;50.248;19.032;2023-01-27T09:54:16;98370.66;;;0.40;67.67
40918;BME280;26644;50.248;19.032;2023-01-27T09:57:52;98373.56;;;0.38;67.01
40918;BME280;26644;50.248;19.032;2023-01-27T10:01:15;98370.25;;;0.36;67.20
40918;BME280;26644;50.248;19.032;2023-01-27T10:04:55;98370.28;;;0.30;66.23
40918;BME280;26644;50.248;19.032;2023-01-27T10:08:39;98361.16;;;0.24;66.17
40918;BME280;26644;50.248;19.032;2023-01-27T10:12:14;98371.75;;;0.25;66.45
40918;BME280;26644;50.248;19.032;2023-01-27T10:15:51;98369.91;;;0.26;66.17
40918;BME280;26644;50.248;19.032;2023-01-27T10:19:22;98363.88;;;0.24;65.90
40918;BME280;26644;50.248;19.032;2023-01-27T10:22:46;98356.81;;;0.16;65.66
40918;BME280;26644;50.248;19.032;2023-01-27T10:26:11;98357.88;;;0.08;64.95
40918;BME280;26644;50.248;19.032;2023-01-27T10:29:25;98347.16;;;-0.12;64.32
40918;BME280;26644;50.248;19.032;2023-01-27T10:33:03;98361.28;;;-0.10;64.56
40918;BME280;26644;50.248;19.032;2023-01-27T10:36:25;98368.34;;;-0.09;64.20
40918;BME280;26644;50.248;19.032;2023-01-27T10:39:41;98366.91;;;-0.11;64.76
40918;BME280;26644;50.248;19.032;2023-01-27T10:43:02;98356.94;;;-0.11;64.67
40918;BME280;26644;50.248;19.032;2023-01-27T10:46:21;98367.69;;;-0.04;63.88
40918;BME280;26644;50.248;19.032;2023-01-27T10:49:42;98331.66;;;-0.23;64.29
40918;BME280;26644;50.248;19.032;2023-01-27T10:53:00;98354.81;;;0.05;64.58
40918;BME280;26644;50.248;19.032;2023-01-27T10:56:26;98367.66;;;0.09;64.25
40918;BME280;26644;50.248;19.032;2023-01-27T10:59:45;98359.34;;;0.11;63.77
40918;BME280;26644;50.248;19.032;2023-01-27T11:03:05;98361.19;;;0.17;63.88
40918;BME280;26644;50.248;19.032;2023-01-27T11:06:23;98361.38;;;0.22;62.99
40918;BME280;26644;50.248;19.032;2023-01-27T11:09:35;98349.56;;;0.17;62.59
40918;BME280;26644;50.248;19.032;2023-01-27T11:12:53;98360.34;;;0.23;62.89
40918;BME280;26644;50.248;19.032;2023-01-27T11:16:04;98357.00;;;0.28;62.93
40918;BME280;26644;50.248;19.032;2023-01-27T11:19:29;98364.84;;;0.36;62.80
40918;BME280;26644;50.248;19.032;2023-01-27T11:22:50;98364.69;;;0.31;61.68
40918;BME280;26644;50.248;19.032;2023-01-27T11:26:04;98330.66;;;0.23;62.01
40918;BME280;26644;50.248;19.032;2023-01-27T11:29:28;98359.81;;;0.47;60.87
40918;BME280;26644;50.248;19.032;2023-01-27T11:32:52;98341.31;;;0.50;60.58
40918;BME280;26644;50.248;19.032;2023-01-27T11:36:03;98347.31;;;0.52;60.53
40918;BME280;26644;50.248;19.032;2023-01-27T11:39:10;98351.25;;;0.56;60.46
40918;BME280;26644;50.248;19.032;2023-01-27T11:42:19;98360.13;;;0.64;60.53
40918;BME280;26644;50.248;19.032;2023-01-27T11:45:32;98321.72;;;0.55;60.84
40918;BME280;26644;50.248;19.032;2023-01-27T11:48:42;98322.34;;;0.57;60.61
40918;BME280;26644;50.248;19.032;2023-01-27T11:52:00;98353.78;;;0.83;60.94
40918;BME280;26644;50.248;19.032;2023-01-27T11:55:15;98369.97;;;0.90;60.94
40918;BME280;26644;50.248;19.032;2023-01-27T11:58:25;98337.41;;;0.78;60.37
40918;BME280;26644;50.248;19.032;2023-01-27T12:01:47;98356.91;;;0.80;59.95
40918;BME280;26644;50.248;19.032;2023-01-27T12:05:02;98337.50;;;0.65;59.89
40918;BME280;26644;50.248;19.032;2023-01-27T12:08:36;98351.72;;;0.79;59.95
40918;BME280;26644;50.248;19.032;2023-01-27T12:11:42;98332.13;;;0.58;59.43
40918;BME280;26644;50.248;19.032;2023-01-27T12:14:50;98349.97;;;0.66;59.82
40918;BME280;26644;50.248;19.032;2023-01-27T12:18:04;98318.66;;;0.51;59.80
40918;BME280;26644;50.248;19.032;2023-01-27T12:21:18;98346.38;;;0.72;59.81
40918;BME280;26644;50.248;19.032;2023-01-27T12:24:29;98347.41;;;0.71;59.86
40918;BME280;26644;50.248;19.032;2023-01-27T12:27:41;98357.34;;;0.77;59.62
40918;BME280;26644;50.248;19.032;2023-01-27T12:31:05;98354.66;;;0.77;59.54
40918;BME280;26644;50.248;19.032;2023-01-27T12:34:27;98353.16;;;0.81;59.70
40918;BME280;26644;50.248;19.032;2023-01-27T12:37:37;98363.81;;;0.76;59.47
40918;BME280;26644;50.248;19.032;2023-01-27T12:40:45;98354.75;;;0.64;59.36
40918;BME280;26644;50.248;19.032;2023-01-27T12:43:56;98350.38;;;0.63;60.00
40918;BME280;26644;50.248;19.032;2023-01-27T12:47:20;98338.34;;;0.58;60.13
40918;BME280;26644;50.248;19.032;2023-01-27T12:50:33;98345.81;;;0.63;60.16
40918;BME280;26644;50.248;19.032;2023-01-27T12:53:40;98346.41;;;0.65;60.42
40918;BME280;26644;50.248;19.032;2023-01-27T12:56:46;98343.47;;;0.67;60.60
40918;BME280;26644;50.248;19.032;2023-01-27T12:59:56;98317.22;;;0.49;60.73
40918;BME280;26644;50.248;19.032;2023-01-27T13:03:05;98355.78;;;0.63;60.95
40918;BME280;26644;50.248;19.032;2023-01-27T13:06:26;98355.19;;;0.60;61.10
40918;BME280;26644;50.248;19.032;2023-01-27T13:09:40;98335.25;;;0.55;61.59
40918;BME280;26644;50.248;19.032;2023-01-27T13:12:57;98306.25;;;0.37;61.32
40918;BME280;26644;50.248;19.032;2023-01-27T13:16:14;98348.50;;;0.63;61.65
40918;BME280;26644;50.248;19.032;2023-01-27T13:19:33;98358.09;;;0.59;61.36
40918;BME280;26644;50.248;19.032;2023-01-27T13:22:50;98357.28;;;0.52;60.92
40918;BME280;26644;50.248;19.032;2023-01-27T13:26:07;98349.63;;;0.49;60.88
40918;BME280;26644;50.248;19.032;2023-01-27T13:29:23;98346.94;;;0.49;60.94
40918;BME280;26644;50.248;19.032;2023-01-27T13:32:36;98353.16;;;0.49;60.79
40918;BME280;26644;50.248;19.032;2023-01-27T13:35:56;98341.75;;;0.47;60.88
40918;BME280;26644;50.248;19.032;2023-01-27T13:39:18;98351.41;;;0.62;61.45
40918;BME280;26644;50.248;19.032;2023-01-27T13:42:37;98356.44;;;0.58;61.90
40918;BME280;26644;50.248;19.032;2023-01-27T13:45:54;98356.44;;;0.58;61.80
40918;BME280;26644;50.248;19.032;2023-01-27T13:49:16;98358.28;;;0.57;61.70
40918;BME280;26644;50.248;19.032;2023-01-27T13:52:34;98343.38;;;0.48;61.08
40918;BME280;26644;50.248;19.032;2023-01-27T13:56:15;98303.00;;;0.21;60.81
40918;BME280;26644;50.248;19.032;2023-01-27T13:59:40;98345.09;;;0.42;60.92
40918;BME280;26644;50.248;19.032;2023-01-27T14:03:15;98359.59;;;0.48;61.24
40918;BME280;26644;50.248;19.032;2023-01-27T14:06:49;98346.53;;;0.45;61.12
40918;BME280;26644;50.248;19.032;2023-01-27T14:10:15;98346.34;;;0.40;60.68
40918;BME280;26644;50.248;19.032;2023-01-27T14:13:40;98342.81;;;0.39;60.83
40918;BME280;26644;50.248;19.032;2023-01-27T14:17:17;98361.44;;;0.54;60.82
40918;BME280;26644;50.248;19.032;2023-01-27T14:20:48;98370.03;;;0.45;60.23
40918;BME280;26644;50.248;19.032;2023-01-27T14:24:14;98375.84;;;0.41;60.24
40918;BME280;26644;50.248;19.032;2023-01-27T14:27:33;98353.44;;;0.34;60.37
40918;BME280;26644;50.248;19.032;2023-01-27T14:30:54;98390.59;;;0.39;59.99
40918;BME280;26644;50.248;19.032;2023-01-27T14:34:21;98380.41;;;0.41;60.06
40918;BME280;26644;50.248;19.032;2023-01-27T14:37:53;98367.59;;;0.23;59.82
40918;BME280;26644;50.248;19.032;2023-01-27T14:41:16;98400.56;;;0.38;59.98
40918;BME280;26644;50.248;19.032;2023-01-27T14:44:39;98384.84;;;0.29;59.49
40918;BME280;26644;50.248;19.032;2023-01-27T14:48:04;98381.06;;;0.30;59.85
40918;BME280;26644;50.248;19.032;2023-01-27T14:51:32;98391.25;;;0.34;60.44
40918;BME280;26644;50.248;19.032;2023-01-27T14:55:01;98399.31;;;0.41;60.71
40918;BME280;26644;50.248;19.032;2023-01-27T14:58:41;98406.19;;;0.43;60.75
40918;BME280;26644;50.248;19.032;2023-01-27T15:01:58;98416.97;;;0.43;61.15
40918;BME280;26644;50.248;19.032;2023-01-27T15:05:22;98415.94;;;0.45;61.24
40918;BME280;26644;50.248;19.032;2023-01-27T15:08:41;98422.16;;;0.45;61.06
40918;BME280;26644;50.248;19.032;2023-01-27T15:12:15;98419.66;;;0.50;60.51
40918;BME280;26644;50.248;19.032;2023-01-27T15:15:58;98429.00;;;0.48;60.03
40918;BME280;26644;50.248;19.032;2023-01-27T15:19:31;98415.56;;;0.34;60.57
40918;BME280;26644;50.248;19.032;2023-01-27T15:23:19;98426.16;;;0.36;62.27
40918;BME280;26644;50.248;19.032;2023-01-27T15:26:39;98411.69;;;0.10;63.01
40918;BME280;26644;50.248;19.032;2023-01-27T15:29:47;98421.81;;;0.21;62.71
40918;BME280;26644;50.248;19.032;2023-01-27T15:32:52;98429.91;;;0.28;62.43
40918;BME280;26644;50.248;19.032;2023-01-27T15:36:16;98424.09;;;0.24;62.23
40918;BME280;26644;50.248;19.032;2023-01-27T15:39:52;98426.59;;;0.33;61.62
40918;BME280;26644;50.248;19.032;2023-01-27T15:43:13;98406.31;;;0.10;61.25
40918;BME280;26644;50.248;19.032;2023-01-27T15:46:31;98440.31;;;0.31;60.76
40918;BME280;26644;50.248;19.032;2023-01-27T15:49:42;98446.31;;;0.33;61.04
40918;BME280;26644;50.248;19.032;2023-01-27T15:52:51;98447.31;;;0.39;61.02
40918;BME280;26644;50.248;19.032;2023-01-27T15:56:07;98393.63;;;0.10;60.01
40918;BME280;26644;50.248;19.032;2023-01-27T15:59:16;98444.44;;;0.40;59.77
40918;BME280;26644;50.248;19.032;2023-01-27T16:02:36;98431.97;;;0.33;59.61
40918;BME280;26644;50.248;19.032;2023-01-27T16:05:50;98394.44;;;0.11;59.32
40918;BME280;26644;50.248;19.032;2023-01-27T16:09:01;98424.28;;;0.30;58.67
40918;BME280;26644;50.248;19.032;2023-01-27T16:12:38;98452.69;;;0.46;58.24
40918;BME280;26644;50.248;19.032;2023-01-27T16:15:50;98420.56;;;0.24;57.56
40918;BME280;26644;50.248;19.032;2023-01-27T16:19:35;98444.03;;;0.30;57.83
40918;BME280;26644;50.248;19.032;2023-01-27T16:22:56;98443.84;;;0.25;57.71
40918;BME280;26644;50.248;19.032;2023-01-27T16:26:26;98443.84;;;0.25;57.86
40918;BME280;26644;50.248;19.032;2023-01-27T16:29:45;98442.59;;;0.27;57.55
40918;BME280;26644;50.248;19.032;2023-01-27T16:33:01;98432.22;;;0.18;57.37
40918;BME280;26644;50.248;19.032;2023-01-27T16:36:19;98443.84;;;0.25;57.56
40918;BME280;26644;50.248;19.032;2023-01-27T16:39:36;98442.19;;;0.24;56.94
40918;BME280;26644;50.248;19.032;2023-01-27T16:42:55;98425.81;;;0.12;56.74
40918;BME280;26644;50.248;19.032;2023-01-27T16:46:24;98429.97;;;0.08;56.69
40918;BME280;26644;50.248;19.032;2023-01-27T16:49:39;98449.28;;;0.12;56.59
40918;BME280;26644;50.248;19.032;2023-01-27T16:52:46;98448.44;;;0.11;56.83
40918;BME280;26644;50.248;19.032;2023-01-27T16:55:57;98443.88;;;0.12;56.84
40918;BME280;26644;50.248;19.032;2023-01-27T16:59:08;98456.34;;;0.13;56.59